createdAt,value
2023-09-03T00:15:19.135Z,22.87
2023-09-03T00:17:30.091Z,22.69
2023-09-03T00:19:40.864Z,22.60
2023-09-03T00:21:51.825Z,22.56
2023-09-03T00:24:02.695Z,22.48
2023-09-03T00:26:25.782Z,22.38
2023-09-03T00:28:38.205Z,22.22
2023-09-03T00:30:48.723Z,22.06
2023-09-03T00:32:59.262Z,21.91
2023-09-03T00:35:11.275Z,21.80
2023-09-03T00:37:21.365Z,21.74
2023-09-03T00:39:31.686Z,21.70
2023-09-03T00:41:42.385Z,21.67
2023-09-03T00:43:52.878Z,21.62
2023-09-03T00:46:06.467Z,21.53
2023-09-03T00:48:20.860Z,21.43
2023-09-03T00:50:33.388Z,21.34
2023-09-03T00:52:44.215Z,21.21
2023-09-03T00:54:56.500Z,21.12
2023-09-03T00:57:09.112Z,21.11
2023-09-03T00:59:23.228Z,21.13
2023-09-03T01:01:35.861Z,21.22
2023-09-03T01:03:49.804Z,21.34
2023-09-03T01:06:03.352Z,21.48
2023-09-03T01:08:14.835Z,21.56
2023-09-03T01:10:28.353Z,21.63
2023-09-03T01:12:44.224Z,21.67
2023-09-03T01:15:03.361Z,21.63
2023-09-03T01:17:20.355Z,21.53
2023-09-03T01:20:03.016Z,21.45
2023-09-03T01:22:35.531Z,21.34
2023-09-03T01:26:03.365Z,21.13
2023-09-03T01:28:27.999Z,20.82
2023-09-03T01:30:46.289Z,20.54
2023-09-03T01:33:01.491Z,20.32
2023-09-03T01:35:13.619Z,20.19
2023-09-03T01:37:24.366Z,20.06
2023-09-03T01:39:35.345Z,19.98
2023-09-03T01:41:46.465Z,19.95
2023-09-03T01:43:56.985Z,19.90
2023-09-03T01:46:11.647Z,19.79
2023-09-03T01:48:29.978Z,19.63
2023-09-03T01:50:47.182Z,19.48
2023-09-03T01:53:06.654Z,19.34
2023-09-03T01:55:19.872Z,19.21
2023-09-03T01:57:33.115Z,19.06
2023-09-03T01:59:48.715Z,18.89
2023-09-03T02:02:00.281Z,18.74
2023-09-03T02:04:11.029Z,18.60
2023-09-03T02:06:21.701Z,18.52
2023-09-03T02:08:32.465Z,18.48
2023-09-03T02:10:43.045Z,18.42
2023-09-03T02:12:53.414Z,18.35
2023-09-03T02:15:04.537Z,18.31
2023-09-03T02:17:21.064Z,18.29
2023-09-03T02:19:31.833Z,18.21
2023-09-03T02:21:43.764Z,18.13
2023-09-03T02:23:54.568Z,18.03
2023-09-03T02:26:06.874Z,17.95
2023-09-03T02:28:17.417Z,17.89
2023-09-03T02:30:27.871Z,17.86
2023-09-03T02:32:38.882Z,17.81
2023-09-03T02:34:49.267Z,17.77
2023-09-03T02:37:00.233Z,17.72
2023-09-03T02:39:11.386Z,17.68
2023-09-03T02:41:21.865Z,17.67
2023-09-03T02:43:32.036Z,17.68
2023-09-03T02:45:43.068Z,17.71
2023-09-03T02:47:53.514Z,17.75
2023-09-03T02:50:04.073Z,17.76
2023-09-03T02:52:16.812Z,17.77
2023-09-03T02:54:27.578Z,17.78
2023-09-03T02:56:38.324Z,17.77
2023-09-03T02:58:52.394Z,17.78
2023-09-03T03:01:09.637Z,17.76
2023-09-03T03:03:20.191Z,17.75
2023-09-03T03:05:30.780Z,17.74
2023-09-03T03:07:44.123Z,17.75
2023-09-03T03:09:56.078Z,17.75
2023-09-03T03:12:06.949Z,17.76
2023-09-03T03:14:17.977Z,17.77
2023-09-03T03:16:28.476Z,17.77
2023-09-03T03:18:40.594Z,17.78
2023-09-03T03:20:55.748Z,17.77
2023-09-03T03:23:07.083Z,17.77
2023-09-03T03:25:17.944Z,17.77
2023-09-03T03:27:28.784Z,17.78
2023-09-03T03:29:39.384Z,17.75
2023-09-03T03:31:50.921Z,17.73
2023-09-03T03:34:02.198Z,17.73
2023-09-03T03:36:17.198Z,17.68
2023-09-03T03:38:28.432Z,17.63
2023-09-03T03:40:39.075Z,17.62
2023-09-03T03:42:48.743Z,17.62
2023-09-03T03:44:59.424Z,17.60
2023-09-03T03:47:10.384Z,17.53
2023-09-03T03:49:20.832Z,17.49
2023-09-03T03:51:32.210Z,17.44
2023-09-03T03:53:43.588Z,17.40
2023-09-03T03:56:01.828Z,17.37
2023-09-03T03:58:13.750Z,17.34
2023-09-03T04:00:24.653Z,17.31
2023-09-03T04:02:35.112Z,17.29
2023-09-03T04:04:46.005Z,17.26
2023-09-03T04:06:56.749Z,17.23
2023-09-03T04:09:07.522Z,17.20
2023-09-03T04:11:20.803Z,17.20
2023-09-03T04:13:32.028Z,17.20
2023-09-03T04:15:44.615Z,17.21
2023-09-03T04:17:55.586Z,17.21
2023-09-03T04:20:07.117Z,17.21
2023-09-03T04:22:18.687Z,17.23
2023-09-03T04:24:29.796Z,17.25
2023-09-03T04:26:40.364Z,17.21
2023-09-03T04:28:50.973Z,17.23
2023-09-03T04:31:03.351Z,17.22
2023-09-03T04:33:19.190Z,17.18
2023-09-03T04:35:30.240Z,17.16
2023-09-03T04:37:41.558Z,17.15
2023-09-03T04:39:52.914Z,17.14
2023-09-03T04:42:03.834Z,17.12
2023-09-03T04:44:15.791Z,17.09
2023-09-03T04:46:32.610Z,17.08
2023-09-03T04:48:42.986Z,17.09
2023-09-03T04:50:53.438Z,17.10
2023-09-03T04:53:04.644Z,17.11
2023-09-03T04:55:15.939Z,17.13
2023-09-03T04:57:27.432Z,17.16
2023-09-03T04:59:40.226Z,17.14
2023-09-03T05:01:50.962Z,17.12
2023-09-03T05:04:01.328Z,17.11
2023-09-03T05:06:14.502Z,17.08
2023-09-03T05:08:25.765Z,17.06
2023-09-03T05:10:36.640Z,17.04
2023-09-03T05:12:50.454Z,17.01
2023-09-03T05:15:01.613Z,16.99
2023-09-03T05:17:11.874Z,16.96
2023-09-03T05:19:22.295Z,16.94
2023-09-03T05:21:34.134Z,16.92
2023-09-03T05:23:45.171Z,16.91
2023-09-03T05:25:56.273Z,16.89
2023-09-03T05:28:06.917Z,16.87
2023-09-03T05:30:17.916Z,16.84
2023-09-03T05:32:28.456Z,16.82
2023-09-03T05:34:39.186Z,16.79
2023-09-03T05:36:50.086Z,16.80
2023-09-03T05:39:00.801Z,16.81
2023-09-03T05:41:30.417Z,16.88
2023-09-03T05:43:46.728Z,16.90
2023-09-03T05:46:02.666Z,16.96
2023-09-03T05:48:16.611Z,16.98
2023-09-03T05:50:34.121Z,16.99
2023-09-03T05:52:50.475Z,17.00
2023-09-03T05:55:04.297Z,16.99
2023-09-03T05:57:18.899Z,16.94
2023-09-03T05:59:32.939Z,16.88
2023-09-03T06:01:46.714Z,16.84
2023-09-03T06:04:05.316Z,16.80
2023-09-03T06:06:19.171Z,16.79
2023-09-03T06:08:33.009Z,16.76
2023-09-03T06:10:49.511Z,16.71
2023-09-03T06:13:03.969Z,16.68
2023-09-03T06:15:19.121Z,16.66
2023-09-03T06:17:33.217Z,16.65
2023-09-03T06:19:51.009Z,16.65
2023-09-03T06:22:04.692Z,16.67
2023-09-03T06:24:19.205Z,16.69
2023-09-03T06:26:32.856Z,16.72
2023-09-03T06:28:47.254Z,16.74
2023-09-03T06:31:02.728Z,16.77
2023-09-03T06:33:19.382Z,16.79
2023-09-03T06:35:33.347Z,16.79
2023-09-03T06:37:47.234Z,16.79
2023-09-03T06:40:00.705Z,16.81
2023-09-03T06:42:14.446Z,16.84
2023-09-03T06:44:28.008Z,16.87
2023-09-03T06:46:42.274Z,16.90
2023-09-03T06:48:55.830Z,16.90
2023-09-03T06:51:09.575Z,16.90
2023-09-03T06:53:23.522Z,16.91
2023-09-03T06:55:37.200Z,16.93
2023-09-03T06:57:51.171Z,16.94
2023-09-03T07:00:08.766Z,16.93
2023-09-03T07:02:22.660Z,16.92
2023-09-03T07:04:36.820Z,16.93
2023-09-03T07:06:50.445Z,16.95
2023-09-03T07:09:04.119Z,16.97
2023-09-03T07:11:18.011Z,16.98
2023-09-03T07:13:31.825Z,16.98
2023-09-03T07:15:45.350Z,16.96
2023-09-03T07:17:59.069Z,16.92
2023-09-03T07:20:14.388Z,16.87
2023-09-03T07:22:28.755Z,16.82
2023-09-03T07:24:42.298Z,16.79
2023-09-03T07:26:56.188Z,16.75
2023-09-03T07:29:10.440Z,16.72
2023-09-03T07:31:24.562Z,16.69
2023-09-03T07:33:40.908Z,16.68
2023-09-03T07:35:54.501Z,16.65
2023-09-03T07:38:08.498Z,16.64
2023-09-03T07:40:22.990Z,16.63
2023-09-03T07:42:37.113Z,16.65
2023-09-03T07:44:53.518Z,16.66
2023-09-03T07:47:08.031Z,16.67
2023-09-03T07:49:22.516Z,16.66
2023-09-03T07:51:36.906Z,16.63
2023-09-03T07:53:51.250Z,16.60
2023-09-03T07:56:07.835Z,16.56
2023-09-03T07:58:21.792Z,16.52
2023-09-03T08:00:35.327Z,16.52
2023-09-03T08:02:49.192Z,16.51
2023-09-03T08:05:04.251Z,16.49
2023-09-03T11:49:34.332Z,16.60
2023-09-03T11:51:45.620Z,16.57
2023-09-03T11:53:56.122Z,16.57
2023-09-03T11:56:06.966Z,16.55
2023-09-03T11:58:20.727Z,16.52
2023-09-03T12:00:31.681Z,16.50
2023-09-03T12:02:43.785Z,16.50
2023-09-03T12:04:54.533Z,16.49
2023-09-03T12:07:04.984Z,16.48
2023-09-03T12:09:16.784Z,16.47
2023-09-03T12:11:34.813Z,16.47
2023-09-03T12:13:46.112Z,16.46
2023-09-03T12:16:07.919Z,16.45
2023-09-03T12:18:18.404Z,16.44
2023-09-03T12:20:44.634Z,16.43
2023-09-03T12:22:55.555Z,16.43
2023-09-03T12:25:10.865Z,16.43
2023-09-03T12:27:21.433Z,16.44
2023-09-03T12:29:51.481Z,16.46
2023-09-03T12:32:03.192Z,16.48
2023-09-03T12:34:14.196Z,16.48
2023-09-03T12:36:25.470Z,16.48
2023-09-03T12:38:49.589Z,16.49
2023-09-03T12:40:59.740Z,16.50
2023-09-03T12:43:10.550Z,16.51
2023-09-03T12:45:21.620Z,16.51
2023-09-03T12:47:32.546Z,16.51
2023-09-03T12:49:43.252Z,16.51
2023-09-03T12:51:53.823Z,16.52
2023-09-03T12:54:05.862Z,16.52
2023-09-03T12:56:16.482Z,16.51
2023-09-03T12:58:27.214Z,16.50
2023-09-03T13:00:37.604Z,16.49
2023-09-03T13:02:48.734Z,16.49
2023-09-03T13:04:59.235Z,16.49
2023-09-03T13:07:09.927Z,16.47
2023-09-03T13:09:20.159Z,16.48
2023-09-03T13:11:31.030Z,16.49
2023-09-03T13:13:41.750Z,16.48
2023-09-03T13:15:52.357Z,16.50
2023-09-03T13:18:05.334Z,16.50
2023-09-03T13:20:17.453Z,16.50
2023-09-03T13:22:27.968Z,16.50
2023-09-03T13:24:38.973Z,16.49
2023-09-03T13:26:52.789Z,16.48
2023-09-03T13:29:03.226Z,16.47
2023-09-03T13:31:13.965Z,16.45
2023-09-03T13:33:24.761Z,16.46
2023-09-03T13:35:36.212Z,16.43
2023-09-03T13:37:46.640Z,16.43
2023-09-03T13:39:56.948Z,16.42
2023-09-03T13:42:08.040Z,16.42
2023-09-03T13:44:18.800Z,16.42
2023-09-03T13:46:31.066Z,16.42
2023-09-03T13:48:42.918Z,16.42
2023-09-03T13:50:53.846Z,16.41
2023-09-03T13:53:05.075Z,16.40
2023-09-03T13:55:16.824Z,16.41
2023-09-03T13:57:27.713Z,16.41
2023-09-03T13:59:40.386Z,16.42
2023-09-03T14:01:50.907Z,16.42
2023-09-03T14:04:01.035Z,16.43
2023-09-03T14:06:12.382Z,16.45
2023-09-03T14:08:25.392Z,16.46
2023-09-03T14:10:36.121Z,16.48
2023-09-03T14:12:46.548Z,16.45
2023-09-03T14:14:57.083Z,16.42
2023-09-03T14:17:07.980Z,16.41
2023-09-03T14:19:21.630Z,16.41
2023-09-03T14:21:34.444Z,16.43
2023-09-03T14:23:45.547Z,16.45
2023-09-03T14:25:56.925Z,16.46
2023-09-03T14:28:07.637Z,16.47
2023-09-03T14:30:19.797Z,16.47
2023-09-03T14:32:30.613Z,16.46
2023-09-03T14:34:44.904Z,16.43
2023-09-03T14:36:55.404Z,16.42
2023-09-03T14:39:06.761Z,16.41
2023-09-03T14:41:17.294Z,16.41
2023-09-03T14:43:27.766Z,16.40
2023-09-03T14:45:38.480Z,16.41
2023-09-03T14:47:52.720Z,16.41
2023-09-03T14:50:03.093Z,16.41
2023-09-03T14:52:13.772Z,16.40
2023-09-03T14:54:24.160Z,16.40
2023-09-03T14:56:35.764Z,16.40
2023-09-03T14:58:46.465Z,16.41
2023-09-03T15:00:58.961Z,16.41
2023-09-03T15:03:07.321Z,16.42
2023-09-03T15:05:18.057Z,16.42
2023-09-03T15:07:28.427Z,16.43
2023-09-03T15:09:38.646Z,16.47
2023-09-03T15:11:49.332Z,16.49
2023-09-03T15:14:02.082Z,16.52
2023-09-03T15:16:12.702Z,16.55
2023-09-03T15:18:23.430Z,16.58
2023-09-03T15:20:34.643Z,16.59
2023-09-03T15:22:45.050Z,16.61
2023-09-03T15:24:55.675Z,16.61
2023-09-03T15:27:07.207Z,16.62
2023-09-03T15:29:18.509Z,16.63
2023-09-03T15:31:29.206Z,16.61
2023-09-03T15:33:40.014Z,16.62
2023-09-03T15:35:51.086Z,16.63
2023-09-03T15:38:02.266Z,16.62
2023-09-03T15:40:15.314Z,16.61
2023-09-03T15:42:25.962Z,16.59
2023-09-03T15:44:36.259Z,16.57
2023-09-03T15:46:49.075Z,16.57
2023-09-03T15:48:59.826Z,16.57
2023-09-03T15:51:10.438Z,16.56
2023-09-03T15:53:22.045Z,16.53
2023-09-03T15:55:33.464Z,16.50
2023-09-03T15:57:44.178Z,16.49
2023-09-03T15:59:54.716Z,16.49
2023-09-03T16:02:05.313Z,16.50
2023-09-03T16:04:15.804Z,16.51
2023-09-03T16:06:26.504Z,16.51
2023-09-03T16:08:37.156Z,16.52
2023-09-03T16:10:48.409Z,16.54
2023-09-03T16:13:02.204Z,16.56
2023-09-03T16:15:14.801Z,16.54
2023-09-03T16:17:25.497Z,16.55
2023-09-03T16:19:36.156Z,16.59
2023-09-03T16:21:46.627Z,16.62
2023-09-03T16:23:57.071Z,16.66
2023-09-03T16:26:07.866Z,16.72
2023-09-03T16:28:18.867Z,16.79
2023-09-03T16:30:32.176Z,16.86
2023-09-03T16:32:44.286Z,16.91
2023-09-03T16:34:59.713Z,16.96
2023-09-03T16:37:10.664Z,17.00
2023-09-03T16:39:21.162Z,17.02
2023-09-03T16:41:33.642Z,17.02
2023-09-03T16:43:44.194Z,17.00
2023-09-03T16:45:55.022Z,17.00
2023-09-03T16:48:06.012Z,17.01
2023-09-03T16:50:16.733Z,17.02
2023-09-03T16:52:27.290Z,17.02
2023-09-03T16:54:40.164Z,17.02
2023-09-03T16:56:50.943Z,17.00
2023-09-03T16:59:02.178Z,17.00
2023-09-03T17:01:12.548Z,17.00
2023-09-03T17:03:24.562Z,17.02
2023-09-03T17:05:36.343Z,17.05
2023-09-03T17:07:46.800Z,17.06
2023-09-03T17:09:57.467Z,17.08
2023-09-03T17:12:08.521Z,17.07
2023-09-03T17:14:19.216Z,17.07
2023-09-03T17:16:29.797Z,17.05
2023-09-03T17:18:40.378Z,17.04
2023-09-03T17:20:51.756Z,17.04
2023-09-03T17:23:07.092Z,17.04
2023-09-03T17:25:19.090Z,17.06
2023-09-03T17:27:29.392Z,17.07
2023-09-03T17:29:40.551Z,17.07
2023-09-03T17:31:51.879Z,17.08
2023-09-03T17:34:02.714Z,17.08
2023-09-03T17:36:12.930Z,17.09
2023-09-03T17:38:24.009Z,17.12
2023-09-03T17:40:35.158Z,17.15
2023-09-03T17:42:46.162Z,17.14
2023-09-03T17:45:01.449Z,17.13
2023-09-03T17:47:11.691Z,17.13
2023-09-03T17:49:22.189Z,17.13
2023-09-03T17:51:32.517Z,17.11
2023-09-03T17:53:43.279Z,17.09
2023-09-03T18:06:53.732Z,17.68
2023-09-03T18:09:08.245Z,17.81
2023-09-03T18:11:22.829Z,17.85
2023-09-03T18:13:36.462Z,17.84
2023-09-03T18:15:50.136Z,17.81
2023-09-03T18:18:03.932Z,17.83
2023-09-03T18:20:20.975Z,17.85
2023-09-03T18:22:34.815Z,17.86
2023-09-03T18:24:49.176Z,17.87
2023-09-03T18:27:03.268Z,17.85
2023-09-03T18:29:17.803Z,17.81
2023-09-03T18:31:32.153Z,17.78
2023-09-03T18:33:48.235Z,17.71
2023-09-03T18:36:03.115Z,17.66
2023-09-03T18:38:16.750Z,17.61
2023-09-03T18:40:32.298Z,17.56
2023-09-03T18:42:46.706Z,17.51
2023-09-03T18:45:00.590Z,17.50
2023-09-03T18:47:14.871Z,17.49
2023-09-03T18:49:28.600Z,17.51
2023-09-03T18:51:48.076Z,17.51
2023-09-03T18:54:02.868Z,17.52
2023-09-03T18:56:20.089Z,17.52
2023-09-03T18:58:33.755Z,17.53
2023-09-03T19:00:47.880Z,17.52
2023-09-03T19:03:08.195Z,17.52
2023-09-03T19:05:23.433Z,17.52
2023-09-03T19:07:37.523Z,17.52
2023-09-03T19:09:53.023Z,17.49
2023-09-03T19:12:08.067Z,17.48
2023-09-03T19:14:21.960Z,17.46
2023-09-03T19:16:35.825Z,17.43
2023-09-03T19:18:50.023Z,17.41
2023-09-03T19:21:04.035Z,17.39
2023-09-03T19:23:22.108Z,17.38
2023-09-03T19:25:44.730Z,17.38
2023-09-03T19:27:58.316Z,17.40
2023-09-03T19:30:13.513Z,17.44
2023-09-03T19:32:29.463Z,17.45
2023-09-03T19:34:43.554Z,17.45
2023-09-03T19:36:57.506Z,17.44
2023-09-03T19:39:17.174Z,17.44
2023-09-03T19:41:33.305Z,17.48
2023-09-03T19:43:48.404Z,17.48
2023-09-03T19:46:03.563Z,17.47
2023-09-03T19:48:27.652Z,17.48
2023-09-03T19:50:41.443Z,17.49
2023-09-03T19:52:55.263Z,17.49
2023-09-03T19:55:13.005Z,17.49
2023-09-03T19:57:26.815Z,17.47
2023-09-03T19:59:41.397Z,17.48
2023-09-03T20:01:55.596Z,17.47
2023-09-03T20:04:09.585Z,17.44
2023-09-03T20:06:25.233Z,17.43
2023-09-03T20:08:39.141Z,17.45
2023-09-03T20:10:53.054Z,17.48
2023-09-03T20:13:07.046Z,17.52
2023-09-03T20:15:21.941Z,17.54
2023-09-03T20:17:35.563Z,17.54
2023-09-03T20:19:53.053Z,17.55
2023-09-03T20:22:07.078Z,17.54
2023-09-03T20:24:22.018Z,17.57
2023-09-03T20:26:48.005Z,17.59
2023-09-03T20:29:04.614Z,17.57
2023-09-03T20:31:18.897Z,17.58
2023-09-03T20:33:33.338Z,17.55
2023-09-03T20:35:51.474Z,17.54
2023-09-03T20:38:05.192Z,17.54
2023-09-03T20:40:22.406Z,17.50
2023-09-03T20:42:36.135Z,17.50
2023-09-03T20:44:49.846Z,17.54
2023-09-03T20:47:04.066Z,17.56
2023-09-03T20:49:18.255Z,17.58
2023-09-03T20:51:32.060Z,17.60
2023-09-03T20:53:45.891Z,17.62
2023-09-03T20:56:00.327Z,17.64
2023-09-03T20:58:14.592Z,17.64
2023-09-03T21:00:28.877Z,17.66
2023-09-03T21:02:42.435Z,17.65
2023-09-03T21:04:55.948Z,17.65
2023-09-03T21:07:09.976Z,17.68
2023-09-03T21:09:23.858Z,17.71
2023-09-03T21:11:40.955Z,17.74
2023-09-03T21:13:55.114Z,17.75
2023-09-03T21:16:11.534Z,17.77
2023-09-03T21:18:28.602Z,17.77
2023-09-03T21:20:43.599Z,17.78
2023-09-03T21:23:00.922Z,17.83
2023-09-03T21:25:15.881Z,17.86
2023-09-03T21:27:30.645Z,17.85
2023-09-03T21:29:46.934Z,17.86
2023-09-03T21:32:02.118Z,17.87
2023-09-03T21:34:16.437Z,17.87
2023-09-03T21:36:30.163Z,17.89
2023-09-03T21:38:44.632Z,17.90
2023-09-03T21:40:58.689Z,17.91
2023-09-03T21:43:12.504Z,17.91
2023-09-03T21:45:26.149Z,17.87
2023-09-03T21:47:40.197Z,17.82
2023-09-03T21:49:55.565Z,17.81
2023-09-03T21:52:09.345Z,17.79
2023-09-03T21:54:23.009Z,17.75
2023-09-03T21:56:36.673Z,17.69
2023-09-03T21:58:50.636Z,17.64
2023-09-03T22:01:07.633Z,17.62
2023-09-03T22:03:21.673Z,17.62
2023-09-03T22:05:39.119Z,17.61
2023-09-03T22:07:54.589Z,17.58
2023-09-03T22:10:09.136Z,17.54
2023-09-03T22:12:23.172Z,17.46
2023-09-03T22:14:36.855Z,17.41
2023-09-03T22:16:51.159Z,17.38
2023-09-03T22:19:25.860Z,17.34
2023-09-03T22:21:47.064Z,17.34
2023-09-03T22:24:06.969Z,17.30
2023-09-03T22:26:21.655Z,17.25
2023-09-03T22:28:38.685Z,17.24
2023-09-03T22:30:54.279Z,17.22
2023-09-03T22:33:12.219Z,17.22
2023-09-03T22:35:29.493Z,17.21
2023-09-03T22:37:46.362Z,17.19
2023-09-03T22:40:00.041Z,17.16
2023-09-03T22:42:14.893Z,17.15
2023-09-03T22:44:29.466Z,17.16
2023-09-03T22:46:43.140Z,17.19
2023-09-03T22:48:56.730Z,17.19
2023-09-03T22:51:10.461Z,17.19
2023-09-03T22:53:27.861Z,17.19
2023-09-03T22:55:41.972Z,17.19
2023-09-03T22:57:55.514Z,17.21
2023-09-03T23:00:10.770Z,17.23
2023-09-03T23:02:24.680Z,17.25
2023-09-03T23:04:38.357Z,17.27
2023-09-03T23:06:52.128Z,17.28
2023-09-03T23:09:06.477Z,17.30
2023-09-03T23:11:20.277Z,17.34
2023-09-03T23:13:34.178Z,17.40
2023-09-03T23:15:48.544Z,17.45
2023-09-03T23:18:02.835Z,17.47
2023-09-03T23:20:19.275Z,17.51
2023-09-03T23:22:34.043Z,17.58
2023-09-03T23:24:48.793Z,17.66
2023-09-03T23:27:02.471Z,17.71
2023-09-03T23:29:16.662Z,17.75
2023-09-03T23:31:32.671Z,17.81
2023-09-03T23:33:50.384Z,17.85
2023-09-03T23:36:04.323Z,17.88
2023-09-03T23:38:18.015Z,17.91
2023-09-03T23:40:34.738Z,17.91
2023-09-03T23:42:49.710Z,17.95
2023-09-03T23:45:03.735Z,17.94
2023-09-03T23:47:20.204Z,17.92
2023-09-03T23:49:35.136Z,17.85
2023-09-03T23:51:49.178Z,17.82
2023-09-03T23:54:06.150Z,17.78
2023-09-03T23:56:20.949Z,17.76
2023-09-03T23:58:37.978Z,17.66
